sensor_id;sensor_type;location;lat;lon;timestamp;P1;durP1;ratioP1;P2;durP2;ratioP2
35376;SDS011;21480;51.642;4.834;2022-07-29T00:00:01;115.73;;;107.63;;
35376;SDS011;21480;51.642;4.834;2022-07-29T00:02:28;116.17;;;107.87;;
35376;SDS011;21480;51.642;4.834;2022-07-29T00:04:54;115.80;;;107.70;;
35376;SDS011;21480;51.642;4.834;2022-07-29T00:07:19;115.07;;;107.07;;
35376;SDS011;21480;51.642;4.834;2022-07-29T00:09:45;115.87;;;107.57;;
35376;SDS011;21480;51.642;4.834;2022-07-29T00:12:11;113.90;;;105.83;;
35376;SDS011;21480;51.642;4.834;2022-07-29T00:14:36;117.43;;;109.03;;
35376;SDS011;21480;51.642;4.834;2022-07-29T00:17:02;118.73;;;110.13;;
35376;SDS011;21480;51.642;4.834;2022-07-29T00:19:28;118.00;;;109.37;;
35376;SDS011;21480;51.642;4.834;2022-07-29T00:21:53;115.97;;;107.57;;
35376;SDS011;21480;51.642;4.834;2022-07-29T00:24:19;117.57;;;109.17;;
35376;SDS011;21480;51.642;4.834;2022-07-29T00:26:44;115.73;;;107.53;;
35376;SDS011;21480;51.642;4.834;2022-07-29T00:29:10;114.63;;;106.57;;
35376;SDS011;21480;51.642;4.834;2022-07-29T00:31:36;118.47;;;109.67;;
35376;SDS011;21480;51.642;4.834;2022-07-29T00:34:02;115.70;;;106.93;;
35376;SDS011;21480;51.642;4.834;2022-07-29T00:36:27;116.07;;;107.53;;
35376;SDS011;21480;51.642;4.834;2022-07-29T00:38:53;115.83;;;107.63;;
35376;SDS011;21480;51.642;4.834;2022-07-29T00:41:19;116.67;;;108.20;;
35376;SDS011;21480;51.642;4.834;2022-07-29T00:43:45;116.30;;;107.60;;
35376;SDS011;21480;51.642;4.834;2022-07-29T00:46:11;115.13;;;106.90;;
35376;SDS011;21480;51.642;4.834;2022-07-29T00:48:37;116.77;;;108.50;;
35376;SDS011;21480;51.642;4.834;2022-07-29T00:51:04;116.80;;;108.60;;
35376;SDS011;21480;51.642;4.834;2022-07-29T00:53:31;116.00;;;107.90;;
35376;SDS011;21480;51.642;4.834;2022-07-29T00:55:57;115.80;;;107.63;;
35376;SDS011;21480;51.642;4.834;2022-07-29T00:58:23;116.77;;;107.93;;
35376;SDS011;21480;51.642;4.834;2022-07-29T01:00:51;115.73;;;107.20;;
35376;SDS011;21480;51.642;4.834;2022-07-29T01:03:17;116.73;;;107.80;;
35376;SDS011;21480;51.642;4.834;2022-07-29T01:05:43;115.13;;;107.07;;
35376;SDS011;21480;51.642;4.834;2022-07-29T01:08:11;115.13;;;107.00;;
35376;SDS011;21480;51.642;4.834;2022-07-29T01:10:39;116.83;;;108.47;;
35376;SDS011;21480;51.642;4.834;2022-07-29T01:13:06;116.07;;;107.87;;
35376;SDS011;21480;51.642;4.834;2022-07-29T01:15:33;116.50;;;108.13;;
35376;SDS011;21480;51.642;4.834;2022-07-29T01:18:07;117.70;;;109.03;;
35376;SDS011;21480;51.642;4.834;2022-07-29T01:28:58;116.07;;;107.83;;
35376;SDS011;21480;51.642;4.834;2022-07-29T01:31:28;115.63;;;107.30;;
35376;SDS011;21480;51.642;4.834;2022-07-29T01:34:05;115.63;;;107.53;;
35376;SDS011;21480;51.642;4.834;2022-07-29T01:36:36;115.77;;;107.57;;
35376;SDS011;21480;51.642;4.834;2022-07-29T01:39:14;115.73;;;107.50;;
35376;SDS011;21480;51.642;4.834;2022-07-29T01:41:59;116.13;;;107.73;;
35376;SDS011;21480;51.642;4.834;2022-07-29T01:44:34;116.63;;;108.37;;
35376;SDS011;21480;51.642;4.834;2022-07-29T01:47:05;117.53;;;108.93;;
35376;SDS011;21480;51.642;4.834;2022-07-29T01:49:39;116.70;;;108.20;;
35376;SDS011;21480;51.642;4.834;2022-07-29T01:52:10;117.70;;;109.00;;
35376;SDS011;21480;51.642;4.834;2022-07-29T01:54:44;118.83;;;110.23;;
35376;SDS011;21480;51.642;4.834;2022-07-29T01:57:17;116.33;;;107.87;;
35376;SDS011;21480;51.642;4.834;2022-07-29T01:59:46;116.00;;;107.37;;
35376;SDS011;21480;51.642;4.834;2022-07-29T02:02:16;117.50;;;109.00;;
35376;SDS011;21480;51.642;4.834;2022-07-29T02:04:44;117.30;;;108.90;;
35376;SDS011;21480;51.642;4.834;2022-07-29T02:07:13;117.70;;;109.33;;
35376;SDS011;21480;51.642;4.834;2022-07-29T02:09:43;116.33;;;108.03;;
35376;SDS011;21480;51.642;4.834;2022-07-29T02:12:10;116.63;;;107.67;;
35376;SDS011;21480;51.642;4.834;2022-07-29T02:14:39;118.63;;;110.10;;
35376;SDS011;21480;51.642;4.834;2022-07-29T02:17:08;117.53;;;109.07;;
35376;SDS011;21480;51.642;4.834;2022-07-29T02:19:37;116.67;;;108.10;;
35376;SDS011;21480;51.642;4.834;2022-07-29T02:22:03;117.67;;;108.67;;
35376;SDS011;21480;51.642;4.834;2022-07-29T02:24:30;116.40;;;107.97;;
35376;SDS011;21480;51.642;4.834;2022-07-29T02:26:58;116.13;;;107.87;;
35376;SDS011;21480;51.642;4.834;2022-07-29T02:29:26;117.00;;;108.47;;
35376;SDS011;21480;51.642;4.834;2022-07-29T02:31:53;117.33;;;108.73;;
35376;SDS011;21480;51.642;4.834;2022-07-29T02:34:23;117.27;;;108.33;;
35376;SDS011;21480;51.642;4.834;2022-07-29T02:36:50;117.13;;;108.67;;
35376;SDS011;21480;51.642;4.834;2022-07-29T02:39:17;117.27;;;108.87;;
35376;SDS011;21480;51.642;4.834;2022-07-29T02:41:44;117.87;;;109.20;;
35376;SDS011;21480;51.642;4.834;2022-07-29T02:44:19;116.93;;;108.63;;
35376;SDS011;21480;51.642;4.834;2022-07-29T02:46:50;116.57;;;108.10;;
35376;SDS011;21480;51.642;4.834;2022-07-29T02:52:34;115.40;;;107.10;;
35376;SDS011;21480;51.642;4.834;2022-07-29T03:00:33;116.70;;;108.40;;
35376;SDS011;21480;51.642;4.834;2022-07-29T03:03:04;115.77;;;107.37;;
35376;SDS011;21480;51.642;4.834;2022-07-29T03:05:35;117.83;;;108.80;;
35376;SDS011;21480;51.642;4.834;2022-07-29T03:08:03;117.23;;;108.73;;
35376;SDS011;21480;51.642;4.834;2022-07-29T03:10:30;117.00;;;108.50;;
35376;SDS011;21480;51.642;4.834;2022-07-29T03:12:56;118.10;;;108.90;;
35376;SDS011;21480;51.642;4.834;2022-07-29T03:15:23;116.67;;;108.17;;
35376;SDS011;21480;51.642;4.834;2022-07-29T03:17:50;115.10;;;106.90;;
35376;SDS011;21480;51.642;4.834;2022-07-29T03:20:17;117.33;;;108.90;;
35376;SDS011;21480;51.642;4.834;2022-07-29T03:22:44;117.57;;;109.03;;
35376;SDS011;21480;51.642;4.834;2022-07-29T03:25:15;119.53;;;109.67;;
35376;SDS011;21480;51.642;4.834;2022-07-29T03:27:42;116.33;;;107.93;;
35376;SDS011;21480;51.642;4.834;2022-07-29T03:30:09;117.33;;;108.80;;
35376;SDS011;21480;51.642;4.834;2022-07-29T03:32:36;116.73;;;108.43;;
35376;SDS011;21480;51.642;4.834;2022-07-29T03:35:03;116.50;;;108.20;;
35376;SDS011;21480;51.642;4.834;2022-07-29T03:37:30;115.97;;;107.67;;
35376;SDS011;21480;51.642;4.834;2022-07-29T03:39:57;116.73;;;108.17;;
35376;SDS011;21480;51.642;4.834;2022-07-29T03:42:24;115.40;;;107.13;;
35376;SDS011;21480;51.642;4.834;2022-07-29T03:44:53;116.63;;;108.10;;
35376;SDS011;21480;51.642;4.834;2022-07-29T03:47:22;117.10;;;108.20;;
35376;SDS011;21480;51.642;4.834;2022-07-29T03:49:54;117.10;;;108.80;;
35376;SDS011;21480;51.642;4.834;2022-07-29T03:52:25;117.27;;;108.77;;
35376;SDS011;21480;51.642;4.834;2022-07-29T03:54:50;117.83;;;109.17;;
35376;SDS011;21480;51.642;4.834;2022-07-29T03:57:17;116.87;;;108.47;;
35376;SDS011;21480;51.642;4.834;2022-07-29T03:59:45;116.90;;;108.27;;
35376;SDS011;21480;51.642;4.834;2022-07-29T04:02:12;117.07;;;108.70;;
35376;SDS011;21480;51.642;4.834;2022-07-29T04:04:38;116.27;;;107.73;;
35376;SDS011;21480;51.642;4.834;2022-07-29T04:07:04;117.13;;;108.70;;
35376;SDS011;21480;51.642;4.834;2022-07-29T04:09:30;117.50;;;109.00;;
35376;SDS011;21480;51.642;4.834;2022-07-29T04:11:56;116.43;;;108.03;;
35376;SDS011;21480;51.642;4.834;2022-07-29T04:14:22;117.07;;;108.63;;
35376;SDS011;21480;51.642;4.834;2022-07-29T04:16:47;116.13;;;107.40;;
35376;SDS011;21480;51.642;4.834;2022-07-29T04:19:13;118.33;;;109.40;;
35376;SDS011;21480;51.642;4.834;2022-07-29T04:21:39;117.53;;;108.97;;
35376;SDS011;21480;51.642;4.834;2022-07-29T04:24:06;118.03;;;109.43;;
35376;SDS011;21480;51.642;4.834;2022-07-29T04:26:32;118.53;;;109.83;;
35376;SDS011;21480;51.642;4.834;2022-07-29T04:28:58;118.20;;;109.47;;
35376;SDS011;21480;51.642;4.834;2022-07-29T04:31:24;118.27;;;109.27;;
35376;SDS011;21480;51.642;4.834;2022-07-29T04:33:50;116.47;;;108.07;;
35376;SDS011;21480;51.642;4.834;2022-07-29T04:36:16;117.67;;;109.17;;
35376;SDS011;21480;51.642;4.834;2022-07-29T04:38:41;115.93;;;107.57;;
35376;SDS011;21480;51.642;4.834;2022-07-29T04:41:07;117.10;;;108.27;;
35376;SDS011;21480;51.642;4.834;2022-07-29T04:43:34;115.27;;;106.93;;
35376;SDS011;21480;51.642;4.834;2022-07-29T04:46:00;115.83;;;107.33;;
35376;SDS011;21480;51.642;4.834;2022-07-29T04:48:26;116.17;;;107.87;;
35376;SDS011;21480;51.642;4.834;2022-07-29T04:50:52;118.57;;;109.83;;
35376;SDS011;21480;51.642;4.834;2022-07-29T04:53:18;115.77;;;107.67;;
35376;SDS011;21480;51.642;4.834;2022-07-29T04:55:44;117.63;;;108.50;;
35376;SDS011;21480;51.642;4.834;2022-07-29T04:58:10;118.30;;;109.83;;
35376;SDS011;21480;51.642;4.834;2022-07-29T05:00:36;116.87;;;108.27;;
35376;SDS011;21480;51.642;4.834;2022-07-29T05:03:02;118.43;;;109.73;;
35376;SDS011;21480;51.642;4.834;2022-07-29T05:05:28;118.43;;;110.03;;
35376;SDS011;21480;51.642;4.834;2022-07-29T05:07:54;116.23;;;107.97;;
35376;SDS011;21480;51.642;4.834;2022-07-29T05:10:20;115.27;;;107.03;;
35376;SDS011;21480;51.642;4.834;2022-07-29T05:12:46;118.30;;;109.67;;
35376;SDS011;21480;51.642;4.834;2022-07-29T05:15:12;116.33;;;107.93;;
35376;SDS011;21480;51.642;4.834;2022-07-29T05:17:38;116.47;;;107.73;;
35376;SDS011;21480;51.642;4.834;2022-07-29T05:20:04;116.93;;;108.43;;
35376;SDS011;21480;51.642;4.834;2022-07-29T05:22:31;116.90;;;108.30;;
35376;SDS011;21480;51.642;4.834;2022-07-29T05:24:57;117.70;;;109.30;;
35376;SDS011;21480;51.642;4.834;2022-07-29T05:27:22;116.43;;;107.93;;
35376;SDS011;21480;51.642;4.834;2022-07-29T05:29:48;115.60;;;107.30;;
35376;SDS011;21480;51.642;4.834;2022-07-29T05:32:14;116.17;;;107.17;;
35376;SDS011;21480;51.642;4.834;2022-07-29T05:34:40;117.57;;;108.93;;
35376;SDS011;21480;51.642;4.834;2022-07-29T05:37:06;118.10;;;109.40;;
35376;SDS011;21480;51.642;4.834;2022-07-29T05:39:31;115.50;;;107.10;;
35376;SDS011;21480;51.642;4.834;2022-07-29T05:41:57;116.77;;;108.57;;
35376;SDS011;21480;51.642;4.834;2022-07-29T05:44:22;117.37;;;108.67;;
35376;SDS011;21480;51.642;4.834;2022-07-29T05:46:48;116.20;;;107.73;;
35376;SDS011;21480;51.642;4.834;2022-07-29T05:49:14;115.47;;;107.27;;
35376;SDS011;21480;51.642;4.834;2022-07-29T05:51:40;117.23;;;108.60;;
35376;SDS011;21480;51.642;4.834;2022-07-29T05:54:05;117.50;;;109.10;;
35376;SDS011;21480;51.642;4.834;2022-07-29T05:56:31;117.87;;;108.67;;
35376;SDS011;21480;51.642;4.834;2022-07-29T05:58:57;116.63;;;108.03;;
35376;SDS011;21480;51.642;4.834;2022-07-29T06:01:23;115.70;;;107.50;;
35376;SDS011;21480;51.642;4.834;2022-07-29T06:03:49;116.57;;;108.37;;
35376;SDS011;21480;51.642;4.834;2022-07-29T06:06:15;115.40;;;107.30;;
35376;SDS011;21480;51.642;4.834;2022-07-29T06:08:40;115.33;;;107.33;;
35376;SDS011;21480;51.642;4.834;2022-07-29T06:11:06;118.30;;;109.70;;
35376;SDS011;21480;51.642;4.834;2022-07-29T06:13:33;116.63;;;108.07;;
35376;SDS011;21480;51.642;4.834;2022-07-29T06:15:59;116.67;;;108.10;;
35376;SDS011;21480;51.642;4.834;2022-07-29T06:18:25;116.27;;;108.07;;
35376;SDS011;21480;51.642;4.834;2022-07-29T06:20:51;116.53;;;108.43;;
35376;SDS011;21480;51.642;4.834;2022-07-29T06:23:17;117.17;;;108.77;;
35376;SDS011;21480;51.642;4.834;2022-07-29T06:25:44;117.23;;;108.63;;
35376;SDS011;21480;51.642;4.834;2022-07-29T06:28:10;117.53;;;109.30;;
35376;SDS011;21480;51.642;4.834;2022-07-29T06:30:39;115.17;;;106.97;;
35376;SDS011;21480;51.642;4.834;2022-07-29T06:33:05;116.50;;;107.97;;
35376;SDS011;21480;51.642;4.834;2022-07-29T06:35:32;116.57;;;107.80;;
35376;SDS011;21480;51.642;4.834;2022-07-29T06:38:00;117.87;;;109.23;;
35376;SDS011;21480;51.642;4.834;2022-07-29T06:40:28;116.13;;;107.53;;
35376;SDS011;21480;51.642;4.834;2022-07-29T06:43:12;116.23;;;107.83;;
35376;SDS011;21480;51.642;4.834;2022-07-29T06:45:38;118.27;;;109.53;;
35376;SDS011;21480;51.642;4.834;2022-07-29T06:48:06;117.33;;;108.77;;
35376;SDS011;21480;51.642;4.834;2022-07-29T06:50:31;117.40;;;108.93;;
35376;SDS011;21480;51.642;4.834;2022-07-29T06:52:57;117.80;;;109.17;;
35376;SDS011;21480;51.642;4.834;2022-07-29T06:55:23;117.17;;;108.63;;
35376;SDS011;21480;51.642;4.834;2022-07-29T06:57:49;117.20;;;108.73;;
35376;SDS011;21480;51.642;4.834;2022-07-29T07:00:15;116.33;;;107.87;;
35376;SDS011;21480;51.642;4.834;2022-07-29T07:02:40;117.07;;;108.83;;
35376;SDS011;21480;51.642;4.834;2022-07-29T07:05:06;117.13;;;108.57;;
35376;SDS011;21480;51.642;4.834;2022-07-29T07:07:32;118.10;;;109.60;;
35376;SDS011;21480;51.642;4.834;2022-07-29T07:09:58;116.37;;;107.93;;
35376;SDS011;21480;51.642;4.834;2022-07-29T07:12:23;118.13;;;109.57;;
35376;SDS011;21480;51.642;4.834;2022-07-29T07:14:50;115.73;;;106.93;;
35376;SDS011;21480;51.642;4.834;2022-07-29T07:17:15;118.67;;;110.17;;
35376;SDS011;21480;51.642;4.834;2022-07-29T07:19:41;118.30;;;109.57;;
35376;SDS011;21480;51.642;4.834;2022-07-29T07:22:07;116.27;;;107.73;;
35376;SDS011;21480;51.642;4.834;2022-07-29T07:24:32;116.77;;;108.37;;
35376;SDS011;21480;51.642;4.834;2022-07-29T07:26:58;116.03;;;107.73;;
35376;SDS011;21480;51.642;4.834;2022-07-29T07:29:24;118.03;;;109.43;;
35376;SDS011;21480;51.642;4.834;2022-07-29T07:31:49;117.13;;;108.70;;
35376;SDS011;21480;51.642;4.834;2022-07-29T07:34:15;119.67;;;111.07;;
35376;SDS011;21480;51.642;4.834;2022-07-29T07:36:41;118.07;;;109.67;;
35376;SDS011;21480;51.642;4.834;2022-07-29T07:39:07;116.47;;;107.80;;
35376;SDS011;21480;51.642;4.834;2022-07-29T07:41:33;117.87;;;109.27;;
35376;SDS011;21480;51.642;4.834;2022-07-29T07:43:58;117.87;;;109.23;;
35376;SDS011;21480;51.642;4.834;2022-07-29T07:46:24;116.57;;;108.17;;
35376;SDS011;21480;51.642;4.834;2022-07-29T07:48:50;116.70;;;108.37;;
35376;SDS011;21480;51.642;4.834;2022-07-29T07:51:17;119.20;;;110.63;;
35376;SDS011;21480;51.642;4.834;2022-07-29T07:53:42;118.40;;;109.73;;
35376;SDS011;21480;51.642;4.834;2022-07-29T07:56:09;117.70;;;109.40;;
35376;SDS011;21480;51.642;4.834;2022-07-29T07:58:35;117.37;;;109.20;;
35376;SDS011;21480;51.642;4.834;2022-07-29T08:01:01;118.70;;;109.97;;
35376;SDS011;21480;51.642;4.834;2022-07-29T08:03:27;120.07;;;111.57;;
35376;SDS011;21480;51.642;4.834;2022-07-29T08:05:53;119.23;;;110.07;;
35376;SDS011;21480;51.642;4.834;2022-07-29T08:08:19;117.87;;;109.40;;
35376;SDS011;21480;51.642;4.834;2022-07-29T08:10:46;117.10;;;108.80;;
35376;SDS011;21480;51.642;4.834;2022-07-29T08:13:18;118.03;;;109.50;;
35376;SDS011;21480;51.642;4.834;2022-07-29T08:15:45;120.10;;;111.60;;
35376;SDS011;21480;51.642;4.834;2022-07-29T08:18:12;116.73;;;108.43;;
35376;SDS011;21480;51.642;4.834;2022-07-29T08:20:38;118.97;;;110.23;;
35376;SDS011;21480;51.642;4.834;2022-07-29T08:23:05;115.27;;;107.27;;
35376;SDS011;21480;51.642;4.834;2022-07-29T08:25:37;117.50;;;109.20;;
35376;SDS011;21480;51.642;4.834;2022-07-29T08:28:04;116.73;;;108.00;;
35376;SDS011;21480;51.642;4.834;2022-07-29T08:30:30;117.70;;;108.93;;
35376;SDS011;21480;51.642;4.834;2022-07-29T08:32:57;116.33;;;108.13;;
35376;SDS011;21480;51.642;4.834;2022-07-29T08:35:23;116.83;;;108.57;;
35376;SDS011;21480;51.642;4.834;2022-07-29T08:37:49;115.63;;;107.53;;
35376;SDS011;21480;51.642;4.834;2022-07-29T08:40:15;115.30;;;106.97;;
35376;SDS011;21480;51.642;4.834;2022-07-29T08:42:41;117.00;;;108.70;;
35376;SDS011;21480;51.642;4.834;2022-07-29T08:45:07;116.53;;;107.87;;
35376;SDS011;21480;51.642;4.834;2022-07-29T08:47:33;116.60;;;108.40;;
35376;SDS011;21480;51.642;4.834;2022-07-29T08:50:03;115.03;;;106.40;;
35376;SDS011;21480;51.642;4.834;2022-07-29T08:52:29;116.77;;;108.50;;
35376;SDS011;21480;51.642;4.834;2022-07-29T08:55:01;115.47;;;107.17;;
35376;SDS011;21480;51.642;4.834;2022-07-29T08:57:28;117.10;;;108.43;;
35376;SDS011;21480;51.642;4.834;2022-07-29T08:59:54;115.87;;;107.77;;
35376;SDS011;21480;51.642;4.834;2022-07-29T09:02:22;115.93;;;107.83;;
35376;SDS011;21480;51.642;4.834;2022-07-29T09:04:49;116.27;;;107.87;;
35376;SDS011;21480;51.642;4.834;2022-07-29T09:07:17;115.03;;;107.13;;
35376;SDS011;21480;51.642;4.834;2022-07-29T09:09:43;116.43;;;108.00;;
35376;SDS011;21480;51.642;4.834;2022-07-29T09:12:10;114.90;;;106.57;;
35376;SDS011;21480;51.642;4.834;2022-07-29T09:14:39;116.07;;;107.63;;
35376;SDS011;21480;51.642;4.834;2022-07-29T09:17:06;113.87;;;106.07;;
35376;SDS011;21480;51.642;4.834;2022-07-29T09:19:33;117.70;;;108.87;;
35376;SDS011;21480;51.642;4.834;2022-07-29T09:22:00;114.27;;;106.57;;
35376;SDS011;21480;51.642;4.834;2022-07-29T09:24:44;116.27;;;108.10;;
35376;SDS011;21480;51.642;4.834;2022-07-29T09:27:24;115.70;;;107.73;;
35376;SDS011;21480;51.642;4.834;2022-07-29T09:35:35;116.13;;;108.03;;
35376;SDS011;21480;51.642;4.834;2022-07-29T09:38:11;114.87;;;107.07;;
35376;SDS011;21480;51.642;4.834;2022-07-29T09:40:37;116.27;;;108.07;;
35376;SDS011;21480;51.642;4.834;2022-07-29T09:43:10;115.80;;;107.60;;
35376;SDS011;21480;51.642;4.834;2022-07-29T09:45:37;115.90;;;107.90;;
35376;SDS011;21480;51.642;4.834;2022-07-29T09:51:02;115.37;;;107.23;;
35376;SDS011;21480;51.642;4.834;2022-07-29T09:55:56;114.87;;;106.80;;
35376;SDS011;21480;51.642;4.834;2022-07-29T09:58:22;115.33;;;107.20;;
35376;SDS011;21480;51.642;4.834;2022-07-29T10:00:48;114.60;;;106.47;;
35376;SDS011;21480;51.642;4.834;2022-07-29T10:03:15;114.90;;;106.60;;
35376;SDS011;21480;51.642;4.834;2022-07-29T10:05:42;116.50;;;107.57;;
35376;SDS011;21480;51.642;4.834;2022-07-29T10:08:09;114.50;;;106.43;;
35376;SDS011;21480;51.642;4.834;2022-07-29T10:10:37;115.47;;;107.67;;
35376;SDS011;21480;51.642;4.834;2022-07-29T10:13:09;115.73;;;107.37;;
35376;SDS011;21480;51.642;4.834;2022-07-29T10:15:37;115.67;;;107.43;;
35376;SDS011;21480;51.642;4.834;2022-07-29T10:18:06;115.07;;;107.10;;
35376;SDS011;21480;51.642;4.834;2022-07-29T10:20:33;116.43;;;108.37;;
35376;SDS011;21480;51.642;4.834;2022-07-29T10:22:59;115.07;;;107.00;;
35376;SDS011;21480;51.642;4.834;2022-07-29T10:25:25;114.57;;;106.87;;
35376;SDS011;21480;51.642;4.834;2022-07-29T10:27:52;114.87;;;106.83;;
35376;SDS011;21480;51.642;4.834;2022-07-29T10:30:19;115.10;;;106.90;;
35376;SDS011;21480;51.642;4.834;2022-07-29T10:35:41;115.07;;;106.97;;
35376;SDS011;21480;51.642;4.834;2022-07-29T10:46:28;115.07;;;107.23;;
35376;SDS011;21480;51.642;4.834;2022-07-29T10:49:13;114.83;;;106.93;;
35376;SDS011;21480;51.642;4.834;2022-07-29T10:52:02;114.30;;;106.57;;
35376;SDS011;21480;51.642;4.834;2022-07-29T10:57:11;114.27;;;106.40;;
35376;SDS011;21480;51.642;4.834;2022-07-29T11:05:15;115.43;;;107.37;;
35376;SDS011;21480;51.642;4.834;2022-07-29T11:10:44;115.27;;;106.57;;
35376;SDS011;21480;51.642;4.834;2022-07-29T11:13:09;113.77;;;106.17;;
35376;SDS011;21480;51.642;4.834;2022-07-29T11:15:54;114.83;;;107.10;;
35376;SDS011;21480;51.642;4.834;2022-07-29T11:18:22;113.30;;;105.90;;
35376;SDS011;21480;51.642;4.834;2022-07-29T11:20:48;112.97;;;105.50;;
35376;SDS011;21480;51.642;4.834;2022-07-29T11:31:33;113.63;;;106.03;;
35376;SDS011;21480;51.642;4.834;2022-07-29T11:47:21;112.40;;;105.13;;
35376;SDS011;21480;51.642;4.834;2022-07-29T11:49:47;113.93;;;106.23;;
35376;SDS011;21480;51.642;4.834;2022-07-29T11:52:15;113.20;;;105.40;;
35376;SDS011;21480;51.642;4.834;2022-07-29T11:54:42;112.90;;;105.47;;
35376;SDS011;21480;51.642;4.834;2022-07-29T11:57:09;111.63;;;104.53;;
35376;SDS011;21480;51.642;4.834;2022-07-29T11:59:42;112.33;;;104.83;;
35376;SDS011;21480;51.642;4.834;2022-07-29T12:02:10;111.37;;;104.07;;
35376;SDS011;21480;51.642;4.834;2022-07-29T12:04:50;112.87;;;105.20;;
35376;SDS011;21480;51.642;4.834;2022-07-29T12:07:29;112.87;;;105.47;;
35376;SDS011;21480;51.642;4.834;2022-07-29T12:09:57;111.70;;;104.18;;
35376;SDS011;21480;51.642;4.834;2022-07-29T12:12:23;111.80;;;104.63;;
35376;SDS011;21480;51.642;4.834;2022-07-29T12:14:49;112.23;;;104.90;;
35376;SDS011;21480;51.642;4.834;2022-07-29T12:17:28;112.77;;;105.43;;
35376;SDS011;21480;51.642;4.834;2022-07-29T12:19:59;111.43;;;104.22;;
35376;SDS011;21480;51.642;4.834;2022-07-29T12:22:38;112.30;;;105.00;;
35376;SDS011;21480;51.642;4.834;2022-07-29T12:25:10;111.68;;;104.22;;
35376;SDS011;21480;51.642;4.834;2022-07-29T12:27:39;112.63;;;105.40;;
35376;SDS011;21480;51.642;4.834;2022-07-29T12:30:07;111.55;;;104.25;;
35376;SDS011;21480;51.642;4.834;2022-07-29T12:32:35;112.93;;;105.22;;
35376;SDS011;21480;51.642;4.834;2022-07-29T12:35:04;111.57;;;104.30;;
35376;SDS011;21480;51.642;4.834;2022-07-29T12:37:41;112.13;;;104.70;;
35376;SDS011;21480;51.642;4.834;2022-07-29T12:40:09;111.05;;;103.55;;
35376;SDS011;21480;51.642;4.834;2022-07-29T12:42:37;109.88;;;103.03;;
35376;SDS011;21480;51.642;4.834;2022-07-29T12:45:04;111.47;;;104.38;;
35376;SDS011;21480;51.642;4.834;2022-07-29T12:47:30;109.15;;;102.18;;
35376;SDS011;21480;51.642;4.834;2022-07-29T12:50:10;110.75;;;103.85;;
35376;SDS011;21480;51.642;4.834;2022-07-29T12:52:39;110.85;;;103.93;;
35376;SDS011;21480;51.642;4.834;2022-07-29T12:55:05;111.90;;;104.55;;
35376;SDS011;21480;51.642;4.834;2022-07-29T12:57:31;109.45;;;102.70;;
35376;SDS011;21480;51.642;4.834;2022-07-29T13:00:10;110.88;;;103.55;;
35376;SDS011;21480;51.642;4.834;2022-07-29T13:02:38;110.00;;;103.40;;
35376;SDS011;21480;51.642;4.834;2022-07-29T13:05:05;108.47;;;101.75;;
35376;SDS011;21480;51.642;4.834;2022-07-29T13:07:33;109.30;;;102.60;;
35376;SDS011;21480;51.642;4.834;2022-07-29T13:15:42;107.32;;;100.85;;
35376;SDS011;21480;51.642;4.834;2022-07-29T13:20:54;106.68;;;100.03;;
35376;SDS011;21480;51.642;4.834;2022-07-29T13:23:20;105.28;;;99.07;;
35376;SDS011;21480;51.642;4.834;2022-07-29T13:25:46;108.60;;;102.15;;
35376;SDS011;21480;51.642;4.834;2022-07-29T13:28:12;106.45;;;100.28;;
35376;SDS011;21480;51.642;4.834;2022-07-29T13:30:39;103.82;;;97.70;;
35376;SDS011;21480;51.642;4.834;2022-07-29T13:33:08;103.82;;;97.45;;
35376;SDS011;21480;51.642;4.834;2022-07-29T13:35:33;102.18;;;96.13;;
35376;SDS011;21480;51.642;4.834;2022-07-29T13:37:59;102.05;;;96.05;;
35376;SDS011;21480;51.642;4.834;2022-07-29T13:40:25;102.97;;;96.95;;
35376;SDS011;21480;51.642;4.834;2022-07-29T13:42:51;102.50;;;96.60;;
35376;SDS011;21480;51.642;4.834;2022-07-29T13:45:16;101.07;;;95.07;;
35376;SDS011;21480;51.642;4.834;2022-07-29T13:47:42;103.93;;;97.78;;
35376;SDS011;21480;51.642;4.834;2022-07-29T13:50:08;100.28;;;94.38;;
35376;SDS011;21480;51.642;4.834;2022-07-29T13:52:35;104.28;;;98.25;;
35376;SDS011;21480;51.642;4.834;2022-07-29T13:55:02;99.25;;;93.28;;
35376;SDS011;21480;51.642;4.834;2022-07-29T13:57:29;101.57;;;95.55;;
35376;SDS011;21480;51.642;4.834;2022-07-29T13:59:55;100.35;;;94.63;;
35376;SDS011;21480;51.642;4.834;2022-07-29T14:02:21;101.25;;;95.18;;
35376;SDS011;21480;51.642;4.834;2022-07-29T14:04:47;101.57;;;95.63;;
35376;SDS011;21480;51.642;4.834;2022-07-29T14:07:13;101.20;;;95.32;;
35376;SDS011;21480;51.642;4.834;2022-07-29T14:09:39;100.72;;;94.72;;
35376;SDS011;21480;51.642;4.834;2022-07-29T14:12:04;101.55;;;95.53;;
35376;SDS011;21480;51.642;4.834;2022-07-29T14:14:30;101.18;;;95.38;;
35376;SDS011;21480;51.642;4.834;2022-07-29T14:16:57;104.63;;;98.18;;
35376;SDS011;21480;51.642;4.834;2022-07-29T14:19:23;99.93;;;94.20;;
35376;SDS011;21480;51.642;4.834;2022-07-29T14:21:49;100.75;;;94.88;;
35376;SDS011;21480;51.642;4.834;2022-07-29T14:24:15;102.18;;;96.10;;
35376;SDS011;21480;51.642;4.834;2022-07-29T14:26:40;103.88;;;97.78;;
35376;SDS011;21480;51.642;4.834;2022-07-29T14:29:06;99.63;;;93.75;;
35376;SDS011;21480;51.642;4.834;2022-07-29T14:31:32;101.18;;;95.25;;
35376;SDS011;21480;51.642;4.834;2022-07-29T14:33:57;100.70;;;94.78;;
35376;SDS011;21480;51.642;4.834;2022-07-29T14:36:23;100.57;;;94.35;;
35376;SDS011;21480;51.642;4.834;2022-07-29T14:38:49;101.95;;;96.00;;
35376;SDS011;21480;51.642;4.834;2022-07-29T14:41:15;102.63;;;96.45;;
35376;SDS011;21480;51.642;4.834;2022-07-29T14:43:40;102.70;;;96.85;;
35376;SDS011;21480;51.642;4.834;2022-07-29T14:46:06;102.32;;;96.50;;
35376;SDS011;21480;51.642;4.834;2022-07-29T14:48:32;101.72;;;95.55;;
35376;SDS011;21480;51.642;4.834;2022-07-29T14:50:58;102.25;;;96.28;;
35376;SDS011;21480;51.642;4.834;2022-07-29T14:53:24;105.32;;;98.95;;
35376;SDS011;21480;51.642;4.834;2022-07-29T14:55:52;102.07;;;95.82;;
35376;SDS011;21480;51.642;4.834;2022-07-29T14:58:18;103.45;;;97.10;;
35376;SDS011;21480;51.642;4.834;2022-07-29T15:00:46;105.35;;;98.47;;
35376;SDS011;21480;51.642;4.834;2022-07-29T15:03:11;103.40;;;97.32;;
35376;SDS011;21480;51.642;4.834;2022-07-29T15:05:37;105.13;;;98.78;;
35376;SDS011;21480;51.642;4.834;2022-07-29T15:08:03;103.95;;;97.55;;
35376;SDS011;21480;51.642;4.834;2022-07-29T15:10:29;104.57;;;98.15;;
35376;SDS011;21480;51.642;4.834;2022-07-29T15:12:55;102.90;;;96.68;;
35376;SDS011;21480;51.642;4.834;2022-07-29T15:15:21;103.22;;;97.13;;
35376;SDS011;21480;51.642;4.834;2022-07-29T15:17:46;104.07;;;97.57;;
35376;SDS011;21480;51.642;4.834;2022-07-29T15:20:13;102.60;;;96.53;;